sensor_id;sensor_type;location;lat;lon;timestamp;P1;durP1;ratioP1;P2;durP2;ratioP2
64029;SDS011;50277;52.064;4.492;2023-04-24T00:02:21;1.50;;;1.30;;
64029;SDS011;50277;52.064;4.492;2023-04-24T00:04:47;2.40;;;1.15;;
64029;SDS011;50277;52.064;4.492;2023-04-24T00:07:13;3.25;;;1.45;;
64029;SDS011;50277;52.064;4.492;2023-04-24T00:09:42;3.00;;;0.90;;
64029;SDS011;50277;52.064;4.492;2023-04-24T00:12:08;1.67;;;1.15;;
64029;SDS011;50277;52.064;4.492;2023-04-24T00:14:33;4.18;;;1.13;;
64029;SDS011;50277;52.064;4.492;2023-04-24T00:17:00;2.85;;;1.42;;
64029;SDS011;50277;52.064;4.492;2023-04-24T00:19:26;2.00;;;1.10;;
64029;SDS011;50277;52.064;4.492;2023-04-24T00:21:51;3.53;;;1.20;;
64029;SDS011;50277;52.064;4.492;2023-04-24T00:24:17;1.83;;;1.15;;
64029;SDS011;50277;52.064;4.492;2023-04-24T00:26:43;2.53;;;1.10;;
64029;SDS011;50277;52.064;4.492;2023-04-24T00:29:08;3.13;;;1.33;;
64029;SDS011;50277;52.064;4.492;2023-04-24T00:31:33;2.78;;;1.23;;
64029;SDS011;50277;52.064;4.492;2023-04-24T00:34:02;3.50;;;1.38;;
64029;SDS011;50277;52.064;4.492;2023-04-24T00:36:28;2.97;;;1.30;;
64029;SDS011;50277;52.064;4.492;2023-04-24T00:38:54;3.85;;;1.50;;
64029;SDS011;50277;52.064;4.492;2023-04-24T00:41:19;0.93;;;0.93;;
64029;SDS011;50277;52.064;4.492;2023-04-24T00:43:46;2.35;;;1.20;;
64029;SDS011;50277;52.064;4.492;2023-04-24T00:46:11;2.65;;;1.23;;
64029;SDS011;50277;52.064;4.492;2023-04-24T00:48:38;2.65;;;1.15;;
64029;SDS011;50277;52.064;4.492;2023-04-24T00:51:04;1.88;;;1.30;;
64029;SDS011;50277;52.064;4.492;2023-04-24T00:53:29;1.92;;;1.10;;
64029;SDS011;50277;52.064;4.492;2023-04-24T00:55:55;2.10;;;1.77;;
64029;SDS011;50277;52.064;4.492;2023-04-24T00:58:21;4.18;;;1.33;;
64029;SDS011;50277;52.064;4.492;2023-04-24T01:00:46;2.03;;;1.10;;
64029;SDS011;50277;52.064;4.492;2023-04-24T01:03:13;2.78;;;1.10;;
64029;SDS011;50277;52.064;4.492;2023-04-24T01:05:39;2.03;;;1.30;;
64029;SDS011;50277;52.064;4.492;2023-04-24T01:08:05;1.10;;;1.00;;
64029;SDS011;50277;52.064;4.492;2023-04-24T01:10:31;3.28;;;1.27;;
64029;SDS011;50277;52.064;4.492;2023-04-24T01:12:58;5.10;;;1.60;;
64029;SDS011;50277;52.064;4.492;2023-04-24T01:15:23;2.22;;;1.40;;
64029;SDS011;50277;52.064;4.492;2023-04-24T01:17:49;1.50;;;1.20;;
64029;SDS011;50277;52.064;4.492;2023-04-24T01:20:15;1.00;;;1.00;;
64029;SDS011;50277;52.064;4.492;2023-04-24T01:22:40;1.20;;;1.10;;
64029;SDS011;50277;52.064;4.492;2023-04-24T01:25:06;2.90;;;1.15;;
64029;SDS011;50277;52.064;4.492;2023-04-24T01:27:32;1.77;;;1.02;;
64029;SDS011;50277;52.064;4.492;2023-04-24T01:29:57;2.42;;;1.17;;
64029;SDS011;50277;52.064;4.492;2023-04-24T01:32:24;2.70;;;1.38;;
64029;SDS011;50277;52.064;4.492;2023-04-24T01:34:49;1.52;;;1.42;;
64029;SDS011;50277;52.064;4.492;2023-04-24T01:37:15;3.00;;;1.30;;
64029;SDS011;50277;52.064;4.492;2023-04-24T01:39:40;2.85;;;1.38;;
64029;SDS011;50277;52.064;4.492;2023-04-24T01:42:06;1.75;;;1.20;;
64029;SDS011;50277;52.064;4.492;2023-04-24T01:44:32;0.82;;;0.82;;
64029;SDS011;50277;52.064;4.492;2023-04-24T01:46:58;1.15;;;1.05;;
64029;SDS011;50277;52.064;4.492;2023-04-24T01:49:25;3.40;;;1.20;;
64029;SDS011;50277;52.064;4.492;2023-04-24T01:51:51;4.43;;;1.10;;
64029;SDS011;50277;52.064;4.492;2023-04-24T01:54:16;1.00;;;0.95;;
64029;SDS011;50277;52.064;4.492;2023-04-24T01:56:42;1.20;;;1.10;;
64029;SDS011;50277;52.064;4.492;2023-04-24T01:59:09;1.30;;;1.00;;
64029;SDS011;50277;52.064;4.492;2023-04-24T02:01:36;3.00;;;1.30;;
64029;SDS011;50277;52.064;4.492;2023-04-24T02:04:02;0.90;;;0.88;;
64029;SDS011;50277;52.064;4.492;2023-04-24T02:06:27;1.98;;;1.10;;
64029;SDS011;50277;52.064;4.492;2023-04-24T02:08:53;2.72;;;1.30;;
64029;SDS011;50277;52.064;4.492;2023-04-24T02:11:18;2.15;;;1.38;;
64029;SDS011;50277;52.064;4.492;2023-04-24T02:13:43;3.08;;;1.33;;
64029;SDS011;50277;52.064;4.492;2023-04-24T02:16:09;1.40;;;1.30;;
64029;SDS011;50277;52.064;4.492;2023-04-24T02:18:34;1.48;;;1.30;;
64029;SDS011;50277;52.064;4.492;2023-04-24T02:21:00;4.57;;;1.70;;
64029;SDS011;50277;52.064;4.492;2023-04-24T02:23:25;1.45;;;1.30;;
64029;SDS011;50277;52.064;4.492;2023-04-24T02:25:52;6.30;;;1.90;;
64029;SDS011;50277;52.064;4.492;2023-04-24T02:28:18;1.65;;;1.23;;
64029;SDS011;50277;52.064;4.492;2023-04-24T02:30:44;2.63;;;1.00;;
64029;SDS011;50277;52.064;4.492;2023-04-24T02:33:09;3.15;;;1.27;;
64029;SDS011;50277;52.064;4.492;2023-04-24T02:35:34;1.60;;;0.90;;
64029;SDS011;50277;52.064;4.492;2023-04-24T02:38:00;2.20;;;0.70;;
64029;SDS011;50277;52.064;4.492;2023-04-24T02:40:25;5.72;;;1.40;;
64029;SDS011;50277;52.064;4.492;2023-04-24T02:42:51;2.83;;;0.68;;
64029;SDS011;50277;52.064;4.492;2023-04-24T02:45:16;3.70;;;0.90;;
64029;SDS011;50277;52.064;4.492;2023-04-24T02:47:42;1.50;;;0.77;;
64029;SDS011;50277;52.064;4.492;2023-04-24T02:50:07;1.02;;;0.70;;
64029;SDS011;50277;52.064;4.492;2023-04-24T02:52:32;1.70;;;0.90;;
64029;SDS011;50277;52.064;4.492;2023-04-24T02:54:58;2.08;;;0.80;;
64029;SDS011;50277;52.064;4.492;2023-04-24T02:57:23;2.53;;;1.10;;
64029;SDS011;50277;52.064;4.492;2023-04-24T02:59:48;4.45;;;1.10;;
64029;SDS011;50277;52.064;4.492;2023-04-24T03:02:14;0.95;;;0.63;;
64029;SDS011;50277;52.064;4.492;2023-04-24T03:04:40;1.42;;;0.77;;
64029;SDS011;50277;52.064;4.492;2023-04-24T03:07:05;3.42;;;0.70;;
64029;SDS011;50277;52.064;4.492;2023-04-24T03:09:30;4.70;;;1.05;;
64029;SDS011;50277;52.064;4.492;2023-04-24T03:11:56;1.65;;;0.80;;
64029;SDS011;50277;52.064;4.492;2023-04-24T03:14:22;2.85;;;0.70;;
64029;SDS011;50277;52.064;4.492;2023-04-24T03:16:47;3.63;;;0.80;;
64029;SDS011;50277;52.064;4.492;2023-04-24T03:19:12;1.67;;;0.80;;
64029;SDS011;50277;52.064;4.492;2023-04-24T03:21:38;2.17;;;0.95;;
64029;SDS011;50277;52.064;4.492;2023-04-24T03:24:05;1.20;;;0.80;;
64029;SDS011;50277;52.064;4.492;2023-04-24T03:26:34;1.23;;;0.60;;
64029;SDS011;50277;52.064;4.492;2023-04-24T03:29:00;1.77;;;0.70;;
64029;SDS011;50277;52.064;4.492;2023-04-24T03:31:25;1.30;;;0.70;;
64029;SDS011;50277;52.064;4.492;2023-04-24T03:33:51;1.65;;;0.68;;
64029;SDS011;50277;52.064;4.492;2023-04-24T03:36:17;2.95;;;0.63;;
64029;SDS011;50277;52.064;4.492;2023-04-24T03:38:44;1.42;;;0.77;;
64029;SDS011;50277;52.064;4.492;2023-04-24T03:41:10;0.68;;;0.50;;
64029;SDS011;50277;52.064;4.492;2023-04-24T03:43:35;0.88;;;0.75;;
64029;SDS011;50277;52.064;4.492;2023-04-24T03:46:00;2.10;;;0.73;;
64029;SDS011;50277;52.064;4.492;2023-04-24T03:48:26;1.98;;;0.80;;
64029;SDS011;50277;52.064;4.492;2023-04-24T03:50:51;2.50;;;0.98;;
64029;SDS011;50277;52.064;4.492;2023-04-24T03:53:17;1.70;;;1.00;;
64029;SDS011;50277;52.064;4.492;2023-04-24T03:55:42;1.08;;;0.93;;
64029;SDS011;50277;52.064;4.492;2023-04-24T03:58:08;0.43;;;0.43;;
64029;SDS011;50277;52.064;4.492;2023-04-24T04:00:33;1.65;;;0.88;;
64029;SDS011;50277;52.064;4.492;2023-04-24T04:02:59;1.02;;;0.57;;
64029;SDS011;50277;52.064;4.492;2023-04-24T04:05:24;3.17;;;1.15;;
64029;SDS011;50277;52.064;4.492;2023-04-24T04:07:50;5.15;;;2.45;;
64029;SDS011;50277;52.064;4.492;2023-04-24T04:10:15;2.90;;;2.15;;
64029;SDS011;50277;52.064;4.492;2023-04-24T04:12:42;3.85;;;1.73;;
64029;SDS011;50277;52.064;4.492;2023-04-24T04:15:07;1.67;;;1.05;;
64029;SDS011;50277;52.064;4.492;2023-04-24T04:17:33;3.22;;;1.30;;
64029;SDS011;50277;52.064;4.492;2023-04-24T04:19:58;1.58;;;0.80;;
64029;SDS011;50277;52.064;4.492;2023-04-24T04:22:23;5.15;;;1.70;;
64029;SDS011;50277;52.064;4.492;2023-04-24T04:24:49;1.70;;;1.30;;
64029;SDS011;50277;52.064;4.492;2023-04-24T04:27:16;3.92;;;1.25;;
64029;SDS011;50277;52.064;4.492;2023-04-24T04:29:41;5.38;;;1.92;;
64029;SDS011;50277;52.064;4.492;2023-04-24T04:32:06;5.05;;;1.73;;
64029;SDS011;50277;52.064;4.492;2023-04-24T04:34:32;4.47;;;1.58;;
64029;SDS011;50277;52.064;4.492;2023-04-24T04:36:58;4.20;;;1.77;;
64029;SDS011;50277;52.064;4.492;2023-04-24T04:39:27;6.85;;;2.88;;
64029;SDS011;50277;52.064;4.492;2023-04-24T04:41:53;5.10;;;2.40;;
64029;SDS011;50277;52.064;4.492;2023-04-24T04:44:19;8.73;;;2.95;;
64029;SDS011;50277;52.064;4.492;2023-04-24T04:46:44;4.03;;;2.60;;
64029;SDS011;50277;52.064;4.492;2023-04-24T04:49:09;8.18;;;3.30;;
64029;SDS011;50277;52.064;4.492;2023-04-24T04:51:35;4.68;;;2.80;;
64029;SDS011;50277;52.064;4.492;2023-04-24T04:54:01;6.30;;;3.00;;
64029;SDS011;50277;52.064;4.492;2023-04-24T04:56:27;4.63;;;2.75;;
64029;SDS011;50277;52.064;4.492;2023-04-24T04:58:52;11.15;;;3.55;;
64029;SDS011;50277;52.064;4.492;2023-04-24T05:01:18;12.32;;;4.80;;
64029;SDS011;50277;52.064;4.492;2023-04-24T05:03:43;15.18;;;6.30;;
64029;SDS011;50277;52.064;4.492;2023-04-24T05:06:08;16.13;;;7.95;;
64029;SDS011;50277;52.064;4.492;2023-04-24T05:08:34;15.65;;;8.80;;
64029;SDS011;50277;52.064;4.492;2023-04-24T05:10:59;17.88;;;9.80;;
64029;SDS011;50277;52.064;4.492;2023-04-24T05:13:25;15.88;;;9.32;;
64029;SDS011;50277;52.064;4.492;2023-04-24T05:15:50;26.95;;;11.57;;
64029;SDS011;50277;52.064;4.492;2023-04-24T05:18:16;19.05;;;10.38;;
64029;SDS011;50277;52.064;4.492;2023-04-24T05:20:41;19.50;;;10.80;;
64029;SDS011;50277;52.064;4.492;2023-04-24T05:23:08;24.00;;;10.38;;
64029;SDS011;50277;52.064;4.492;2023-04-24T05:25:34;17.50;;;8.27;;
64029;SDS011;50277;52.064;4.492;2023-04-24T05:28:00;18.95;;;8.43;;
64029;SDS011;50277;52.064;4.492;2023-04-24T05:30:26;22.00;;;8.90;;
64029;SDS011;50277;52.064;4.492;2023-04-24T05:32:51;22.90;;;9.23;;
64029;SDS011;50277;52.064;4.492;2023-04-24T05:35:16;29.20;;;8.95;;
64029;SDS011;50277;52.064;4.492;2023-04-24T05:37:43;23.85;;;8.43;;
64029;SDS011;50277;52.064;4.492;2023-04-24T05:40:09;20.38;;;8.50;;
64029;SDS011;50277;52.064;4.492;2023-04-24T05:42:34;19.95;;;8.90;;
64029;SDS011;50277;52.064;4.492;2023-04-24T05:44:59;20.05;;;7.88;;
64029;SDS011;50277;52.064;4.492;2023-04-24T05:47:25;19.95;;;7.93;;
64029;SDS011;50277;52.064;4.492;2023-04-24T05:49:51;21.02;;;8.32;;
64029;SDS011;50277;52.064;4.492;2023-04-24T05:52:17;17.52;;;7.88;;
64029;SDS011;50277;52.064;4.492;2023-04-24T05:54:42;19.25;;;7.88;;
64029;SDS011;50277;52.064;4.492;2023-04-24T05:57:08;16.50;;;7.43;;
64029;SDS011;50277;52.064;4.492;2023-04-24T05:59:33;21.15;;;7.57;;
64029;SDS011;50277;52.064;4.492;2023-04-24T06:02:01;18.88;;;7.68;;
64029;SDS011;50277;52.064;4.492;2023-04-24T06:04:26;22.67;;;7.15;;
64029;SDS011;50277;52.064;4.492;2023-04-24T06:06:52;26.80;;;7.05;;
64029;SDS011;50277;52.064;4.492;2023-04-24T06:09:21;14.88;;;5.85;;
64029;SDS011;50277;52.064;4.492;2023-04-24T06:11:47;20.15;;;5.60;;
64029;SDS011;50277;52.064;4.492;2023-04-24T06:14:12;23.52;;;5.75;;
64029;SDS011;50277;52.064;4.492;2023-04-24T06:16:37;24.27;;;6.32;;
64029;SDS011;50277;52.064;4.492;2023-04-24T06:19:03;22.08;;;5.85;;
64029;SDS011;50277;52.064;4.492;2023-04-24T06:21:29;25.85;;;5.32;;
64029;SDS011;50277;52.064;4.492;2023-04-24T06:23:55;19.98;;;5.70;;
64029;SDS011;50277;52.064;4.492;2023-04-24T06:26:21;25.48;;;5.28;;
64029;SDS011;50277;52.064;4.492;2023-04-24T06:28:47;19.27;;;5.28;;
64029;SDS011;50277;52.064;4.492;2023-04-24T06:31:12;20.98;;;5.68;;
64029;SDS011;50277;52.064;4.492;2023-04-24T06:33:37;19.92;;;4.75;;
64029;SDS011;50277;52.064;4.492;2023-04-24T06:36:03;18.13;;;4.95;;
64029;SDS011;50277;52.064;4.492;2023-04-24T06:38:29;18.27;;;4.97;;
64029;SDS011;50277;52.064;4.492;2023-04-24T06:40:55;17.10;;;5.05;;
64029;SDS011;50277;52.064;4.492;2023-04-24T06:43:20;20.80;;;5.50;;
64029;SDS011;50277;52.064;4.492;2023-04-24T06:45:45;16.90;;;4.05;;
64029;SDS011;50277;52.064;4.492;2023-04-24T06:48:12;21.63;;;4.50;;
64029;SDS011;50277;52.064;4.492;2023-04-24T06:50:37;13.98;;;4.80;;
64029;SDS011;50277;52.064;4.492;2023-04-24T06:53:02;15.38;;;4.03;;
64029;SDS011;50277;52.064;4.492;2023-04-24T06:55:28;23.23;;;4.28;;
64029;SDS011;50277;52.064;4.492;2023-04-24T06:57:53;20.60;;;4.25;;
64029;SDS011;50277;52.064;4.492;2023-04-24T07:00:18;19.92;;;3.80;;
64029;SDS011;50277;52.064;4.492;2023-04-24T08:59:58;7.85;;;2.15;;
64029;SDS011;50277;52.064;4.492;2023-04-24T09:02:23;6.68;;;1.75;;
64029;SDS011;50277;52.064;4.492;2023-04-24T09:04:49;7.13;;;2.65;;
64029;SDS011;50277;52.064;4.492;2023-04-24T09:07:15;4.90;;;1.50;;
64029;SDS011;50277;52.064;4.492;2023-04-24T09:09:42;8.93;;;1.50;;
64029;SDS011;50277;52.064;4.492;2023-04-24T09:12:07;5.90;;;1.42;;
64029;SDS011;50277;52.064;4.492;2023-04-24T09:14:34;7.28;;;1.85;;
64029;SDS011;50277;52.064;4.492;2023-04-24T09:17:01;8.32;;;1.88;;
64029;SDS011;50277;52.064;4.492;2023-04-24T09:19:27;12.00;;;2.70;;
64029;SDS011;50277;52.064;4.492;2023-04-24T09:21:53;9.35;;;1.73;;
64029;SDS011;50277;52.064;4.492;2023-04-24T09:24:19;11.57;;;2.67;;
64029;SDS011;50277;52.064;4.492;2023-04-24T09:26:47;6.43;;;1.90;;
64029;SDS011;50277;52.064;4.492;2023-04-24T09:29:14;7.75;;;1.67;;
64029;SDS011;50277;52.064;4.492;2023-04-24T09:31:40;4.13;;;1.30;;
64029;SDS011;50277;52.064;4.492;2023-04-24T09:34:06;4.32;;;1.35;;
64029;SDS011;50277;52.064;4.492;2023-04-24T09:36:32;6.25;;;1.85;;
64029;SDS011;50277;52.064;4.492;2023-04-24T09:39:01;3.17;;;1.15;;
64029;SDS011;50277;52.064;4.492;2023-04-24T09:41:27;7.80;;;1.85;;
64029;SDS011;50277;52.064;4.492;2023-04-24T09:43:54;4.28;;;1.63;;
64029;SDS011;50277;52.064;4.492;2023-04-24T09:46:20;7.15;;;1.52;;
64029;SDS011;50277;52.064;4.492;2023-04-24T09:48:47;3.80;;;1.42;;
64029;SDS011;50277;52.064;4.492;2023-04-24T09:51:12;6.32;;;1.90;;
64029;SDS011;50277;52.064;4.492;2023-04-24T09:53:38;9.13;;;1.90;;
64029;SDS011;50277;52.064;4.492;2023-04-24T09:56:09;6.68;;;1.45;;
64029;SDS011;50277;52.064;4.492;2023-04-24T09:58:35;7.97;;;1.25;;
64029;SDS011;50277;52.064;4.492;2023-04-24T10:01:01;7.85;;;1.75;;
64029;SDS011;50277;52.064;4.492;2023-04-24T10:03:29;8.32;;;1.50;;
64029;SDS011;50277;52.064;4.492;2023-04-24T10:08:24;6.68;;;1.50;;
64029;SDS011;50277;52.064;4.492;2023-04-24T10:10:50;4.68;;;1.65;;
64029;SDS011;50277;52.064;4.492;2023-04-24T10:13:15;2.47;;;1.10;;
64029;SDS011;50277;52.064;4.492;2023-04-24T10:15:41;4.80;;;1.25;;
64029;SDS011;50277;52.064;4.492;2023-04-24T10:18:07;8.93;;;1.30;;
64029;SDS011;50277;52.064;4.492;2023-04-24T10:20:34;3.30;;;1.02;;
64029;SDS011;50277;52.064;4.492;2023-04-24T10:23:00;6.55;;;1.70;;
64029;SDS011;50277;52.064;4.492;2023-04-24T10:25:27;6.38;;;1.45;;
64029;SDS011;50277;52.064;4.492;2023-04-24T10:27:57;9.35;;;1.77;;
64029;SDS011;50277;52.064;4.492;2023-04-24T10:30:25;5.35;;;1.30;;
64029;SDS011;50277;52.064;4.492;2023-04-24T10:33:00;9.45;;;1.55;;
64029;SDS011;50277;52.064;4.492;2023-04-24T10:38:03;6.18;;;1.50;;
64029;SDS011;50277;52.064;4.492;2023-04-24T10:40:34;10.77;;;1.65;;
64029;SDS011;50277;52.064;4.492;2023-04-24T10:43:04;12.77;;;1.63;;
64029;SDS011;50277;52.064;4.492;2023-04-24T10:45:34;8.43;;;1.85;;
64029;SDS011;50277;52.064;4.492;2023-04-24T10:48:04;12.77;;;2.17;;
64029;SDS011;50277;52.064;4.492;2023-04-24T10:51:10;7.32;;;2.03;;
64029;SDS011;50277;52.064;4.492;2023-04-24T10:53:28;12.60;;;2.22;;
64029;SDS011;50277;52.064;4.492;2023-04-24T10:55:58;8.35;;;1.80;;
64029;SDS011;50277;52.064;4.492;2023-04-24T11:01:27;10.70;;;1.85;;
64029;SDS011;50277;52.064;4.492;2023-04-24T11:03:54;5.50;;;2.10;;
64029;SDS011;50277;52.064;4.492;2023-04-24T11:06:28;3.10;;;1.10;;
64029;SDS011;50277;52.064;4.492;2023-04-24T11:11:33;3.95;;;1.50;;
64029;SDS011;50277;52.064;4.492;2023-04-24T11:19:03;9.30;;;2.50;;
64029;SDS011;50277;52.064;4.492;2023-04-24T11:22:02;9.05;;;2.25;;
64029;SDS011;50277;52.064;4.492;2023-04-24T11:24:32;13.23;;;2.83;;
64029;SDS011;50277;52.064;4.492;2023-04-24T11:29:45;8.05;;;1.58;;
64029;SDS011;50277;52.064;4.492;2023-04-24T11:32:27;8.40;;;2.05;;
64029;SDS011;50277;52.064;4.492;2023-04-24T11:35:08;4.38;;;1.65;;
64029;SDS011;50277;52.064;4.492;2023-04-24T11:37:39;8.57;;;1.45;;
64029;SDS011;50277;52.064;4.492;2023-04-24T11:40:06;8.90;;;1.75;;
64029;SDS011;50277;52.064;4.492;2023-04-24T11:42:35;7.35;;;1.83;;
64029;SDS011;50277;52.064;4.492;2023-04-24T11:45:01;9.27;;;2.15;;
64029;SDS011;50277;52.064;4.492;2023-04-24T11:47:27;6.38;;;2.30;;
64029;SDS011;50277;52.064;4.492;2023-04-24T11:49:58;7.25;;;2.00;;
64029;SDS011;50277;52.064;4.492;2023-04-24T11:52:23;5.60;;;1.95;;
64029;SDS011;50277;52.064;4.492;2023-04-24T11:54:49;13.05;;;3.05;;
64029;SDS011;50277;52.064;4.492;2023-04-24T11:57:15;12.13;;;2.40;;
64029;SDS011;50277;52.064;4.492;2023-04-24T11:59:40;16.98;;;2.75;;
64029;SDS011;50277;52.064;4.492;2023-04-24T12:02:06;11.05;;;2.35;;
64029;SDS011;50277;52.064;4.492;2023-04-24T12:04:38;10.88;;;2.47;;
64029;SDS011;50277;52.064;4.492;2023-04-24T12:07:05;13.85;;;2.55;;
64029;SDS011;50277;52.064;4.492;2023-04-24T12:09:44;9.70;;;3.08;;
64029;SDS011;50277;52.064;4.492;2023-04-24T12:12:15;10.20;;;2.78;;
64029;SDS011;50277;52.064;4.492;2023-04-24T12:14:47;9.25;;;2.42;;
64029;SDS011;50277;52.064;4.492;2023-04-24T12:17:12;17.17;;;2.80;;
64029;SDS011;50277;52.064;4.492;2023-04-24T12:19:37;11.48;;;2.67;;
64029;SDS011;50277;52.064;4.492;2023-04-24T12:22:04;14.50;;;2.65;;
64029;SDS011;50277;52.064;4.492;2023-04-24T12:24:30;15.32;;;3.58;;
64029;SDS011;50277;52.064;4.492;2023-04-24T12:26:56;11.48;;;3.00;;
64029;SDS011;50277;52.064;4.492;2023-04-24T12:29:22;13.75;;;3.40;;
64029;SDS011;50277;52.064;4.492;2023-04-24T12:31:47;10.45;;;2.60;;
64029;SDS011;50277;52.064;4.492;2023-04-24T12:34:20;16.98;;;3.28;;
64029;SDS011;50277;52.064;4.492;2023-04-24T12:36:46;17.63;;;3.47;;
64029;SDS011;50277;52.064;4.492;2023-04-24T12:39:15;12.20;;;3.10;;
64029;SDS011;50277;52.064;4.492;2023-04-24T12:42:15;13.85;;;2.90;;
64029;SDS011;50277;52.064;4.492;2023-04-24T12:44:33;8.63;;;2.30;;
64029;SDS011;50277;52.064;4.492;2023-04-24T12:47:00;12.27;;;2.65;;
64029;SDS011;50277;52.064;4.492;2023-04-24T12:49:27;14.27;;;3.13;;
64029;SDS011;50277;52.064;4.492;2023-04-24T12:51:55;9.30;;;2.60;;
64029;SDS011;50277;52.064;4.492;2023-04-24T12:54:20;16.77;;;4.10;;
64029;SDS011;50277;52.064;4.492;2023-04-24T12:56:46;13.68;;;2.83;;
64029;SDS011;50277;52.064;4.492;2023-04-24T12:59:11;16.92;;;4.10;;
64029;SDS011;50277;52.064;4.492;2023-04-24T13:01:36;18.08;;;3.65;;
64029;SDS011;50277;52.064;4.492;2023-04-24T13:04:02;11.85;;;3.10;;
64029;SDS011;50277;52.064;4.492;2023-04-24T13:06:27;19.48;;;3.95;;
64029;SDS011;50277;52.064;4.492;2023-04-24T13:08:52;17.95;;;3.45;;
64029;SDS011;50277;52.064;4.492;2023-04-24T13:11:19;10.70;;;2.72;;
64029;SDS011;50277;52.064;4.492;2023-04-24T13:13:46;10.52;;;2.63;;
64029;SDS011;50277;52.064;4.492;2023-04-24T13:16:11;20.08;;;3.35;;
64029;SDS011;50277;52.064;4.492;2023-04-24T13:18:37;10.38;;;2.90;;
64029;SDS011;50277;52.064;4.492;2023-04-24T13:21:02;14.95;;;2.83;;
64029;SDS011;50277;52.064;4.492;2023-04-24T13:23:27;7.43;;;2.30;;
64029;SDS011;50277;52.064;4.492;2023-04-24T13:25:54;10.07;;;2.65;;
64029;SDS011;50277;52.064;4.492;2023-04-24T13:28:22;11.13;;;2.58;;
64029;SDS011;50277;52.064;4.492;2023-04-24T13:30:47;11.05;;;4.53;;
64029;SDS011;50277;52.064;4.492;2023-04-24T13:33:13;10.25;;;2.53;;
64029;SDS011;50277;52.064;4.492;2023-04-24T13:35:39;10.13;;;3.20;;
64029;SDS011;50277;52.064;4.492;2023-04-24T13:38:05;12.38;;;2.78;;
64029;SDS011;50277;52.064;4.492;2023-04-24T13:40:31;8.60;;;3.05;;
64029;SDS011;50277;52.064;4.492;2023-04-24T13:42:56;8.95;;;3.42;;
64029;SDS011;50277;52.064;4.492;2023-04-24T13:45:22;12.07;;;3.17;;
64029;SDS011;50277;52.064;4.492;2023-04-24T13:47:47;10.25;;;3.42;;
64029;SDS011;50277;52.064;4.492;2023-04-24T13:50:13;16.63;;;3.67;;
64029;SDS011;50277;52.064;4.492;2023-04-24T13:52:38;14.23;;;4.05;;
64029;SDS011;50277;52.064;4.492;2023-04-24T13:55:03;12.30;;;3.58;;
64029;SDS011;50277;52.064;4.492;2023-04-24T13:57:29;15.18;;;3.38;;
64029;SDS011;50277;52.064;4.492;2023-04-24T13:59:56;14.65;;;3.25;;
64029;SDS011;50277;52.064;4.492;2023-04-24T14:02:25;11.15;;;3.38;;
64029;SDS011;50277;52.064;4.492;2023-04-24T14:04:51;14.95;;;3.53;;
64029;SDS011;50277;52.064;4.492;2023-04-24T14:07:16;13.27;;;3.83;;
64029;SDS011;50277;52.064;4.492;2023-04-24T14:09:41;17.45;;;4.50;;
64029;SDS011;50277;52.064;4.492;2023-04-24T14:12:07;16.48;;;4.30;;
64029;SDS011;50277;52.064;4.492;2023-04-24T14:14:32;15.75;;;4.05;;
64029;SDS011;50277;52.064;4.492;2023-04-24T14:16:58;14.05;;;3.65;;
64029;SDS011;50277;52.064;4.492;2023-04-24T14:19:23;10.98;;;3.10;;
64029;SDS011;50277;52.064;4.492;2023-04-24T14:21:48;13.63;;;3.63;;
64029;SDS011;50277;52.064;4.492;2023-04-24T14:24:14;13.40;;;4.03;;
64029;SDS011;50277;52.064;4.492;2023-04-24T14:26:40;14.60;;;3.30;;
64029;SDS011;50277;52.064;4.492;2023-04-24T14:29:05;14.77;;;3.58;;
64029;SDS011;50277;52.064;4.492;2023-04-24T14:31:31;16.50;;;3.28;;
64029;SDS011;50277;52.064;4.492;2023-04-24T14:33:56;14.55;;;4.05;;
64029;SDS011;50277;52.064;4.492;2023-04-24T14:36:22;13.57;;;4.20;;
64029;SDS011;50277;52.064;4.492;2023-04-24T14:38:47;16.10;;;3.92;;
64029;SDS011;50277;52.064;4.492;2023-04-24T14:41:13;16.10;;;4.78;;
64029;SDS011;50277;52.064;4.492;2023-04-24T14:43:38;15.60;;;3.90;;
64029;SDS011;50277;52.064;4.492;2023-04-24T14:46:04;20.08;;;3.97;;
64029;SDS011;50277;52.064;4.492;2023-04-24T14:48:29;15.73;;;3.95;;
64029;SDS011;50277;52.064;4.492;2023-04-24T14:50:55;11.52;;;3.20;;
64029;SDS011;50277;52.064;4.492;2023-04-24T14:53:20;19.50;;;4.43;;
64029;SDS011;50277;52.064;4.492;2023-04-24T14:55:46;13.15;;;3.08;;
64029;SDS011;50277;52.064;4.492;2023-04-24T14:58:11;14.88;;;3.47;;
64029;SDS011;50277;52.064;4.492;2023-04-24T15:00:37;7.97;;;3.00;;
64029;SDS011;50277;52.064;4.492;2023-04-24T15:03:02;7.68;;;2.70;;
64029;SDS011;50277;52.064;4.492;2023-04-24T15:05:28;13.68;;;4.43;;
64029;SDS011;50277;52.064;4.492;2023-04-24T15:07:53;10.75;;;3.42;;
64029;SDS011;50277;52.064;4.492;2023-04-24T15:10:18;15.07;;;3.75;;
64029;SDS011;50277;52.064;4.492;2023-04-24T15:15:12;18.73;;;3.80;;
64029;SDS011;50277;52.064;4.492;2023-04-24T15:17:37;13.82;;;3.15;;
64029;SDS011;50277;52.064;4.492;2023-04-24T15:20:03;8.88;;;3.00;;
64029;SDS011;50277;52.064;4.492;2023-04-24T15:22:31;11.77;;;3.30;;
64029;SDS011;50277;52.064;4.492;2023-04-24T15:24:57;17.50;;;4.35;;
64029;SDS011;50277;52.064;4.492;2023-04-24T15:27:22;13.43;;;3.80;;
64029;SDS011;50277;52.064;4.492;2023-04-24T15:29:47;15.65;;;3.92;;
64029;SDS011;50277;52.064;4.492;2023-04-24T15:32:13;22.00;;;3.85;;
64029;SDS011;50277;52.064;4.492;2023-04-24T15:34:38;16.33;;;4.00;;
64029;SDS011;50277;52.064;4.492;2023-04-24T15:37:03;9.50;;;3.33;;
64029;SDS011;50277;52.064;4.492;2023-04-24T15:39:29;9.88;;;3.25;;
64029;SDS011;50277;52.064;4.492;2023-04-24T15:41:55;15.00;;;3.58;;
64029;SDS011;50277;52.064;4.492;2023-04-24T15:44:21;15.30;;;4.32;;
64029;SDS011;50277;52.064;4.492;2023-04-24T15:46:46;13.00;;;3.80;;
64029;SDS011;50277;52.064;4.492;2023-04-24T15:49:12;16.33;;;3.63;;
64029;SDS011;50277;52.064;4.492;2023-04-24T15:51:37;16.58;;;4.00;;
64029;SDS011;50277;52.064;4.492;2023-04-24T15:54:02;12.80;;;3.65;;
64029;SDS011;50277;52.064;4.492;2023-04-24T15:56:28;10.88;;;3.38;;
64029;SDS011;50277;52.064;4.492;2023-04-24T15:58:53;12.88;;;4.30;;
64029;SDS011;50277;52.064;4.492;2023-04-24T16:01:19;11.82;;;3.15;;
64029;SDS011;50277;52.064;4.492;2023-04-24T16:03:44;8.73;;;2.97;;
64029;SDS011;50277;52.064;4.492;2023-04-24T16:06:10;11.30;;;3.10;;
64029;SDS011;50277;52.064;4.492;2023-04-24T16:08:35;13.27;;;3.25;;
64029;SDS011;50277;52.064;4.492;2023-04-24T16:11:01;15.73;;;3.72;;
64029;SDS011;50277;52.064;4.492;2023-04-24T16:13:26;15.23;;;3.85;;
64029;SDS011;50277;52.064;4.492;2023-04-24T16:15:53;12.18;;;3.42;;
64029;SDS011;50277;52.064;4.492;2023-04-24T16:18:18;21.63;;;4.07;;
64029;SDS011;50277;52.064;4.492;2023-04-24T16:20:44;17.40;;;3.72;;
64029;SDS011;50277;52.064;4.492;2023-04-24T16:23:09;13.90;;;3.92;;
64029;SDS011;50277;52.064;4.492;2023-04-24T16:25:35;17.75;;;3.40;;
64029;SDS011;50277;52.064;4.492;2023-04-24T16:28:00;11.82;;;3.75;;
64029;SDS011;50277;52.064;4.492;2023-04-24T16:30:25;15.20;;;3.85;;
64029;SDS011;50277;52.064;4.492;2023-04-24T16:32:51;18.45;;;4.70;;
64029;SDS011;50277;52.064;4.492;2023-04-24T16:35:16;22.15;;;4.75;;
64029;SDS011;50277;52.064;4.492;2023-04-24T16:37:42;15.77;;;4.63;;
64029;SDS011;50277;52.064;4.492;2023-04-24T16:40:07;12.60;;;4.30;;
64029;SDS011;50277;52.064;4.492;2023-04-24T16:42:35;21.08;;;3.88;;
64029;SDS011;50277;52.064;4.492;2023-04-24T16:45:01;19.20;;;4.00;;
64029;SDS011;50277;52.064;4.492;2023-04-24T16:47:26;15.63;;;3.40;;
64029;SDS011;50277;52.064;4.492;2023-04-24T16:49:52;19.13;;;4.55;;
64029;SDS011;50277;52.064;4.492;2023-04-24T16:52:17;11.32;;;3.28;;
64029;SDS011;50277;52.064;4.492;2023-04-24T16:54:42;12.20;;;4.07;;